createdAt,value
2023-11-10T00:00:31.367Z,13.80
2023-11-10T00:02:58.589Z,14.30
2023-11-10T00:05:27.084Z,13.23
2023-11-10T00:07:55.503Z,14.57
2023-11-10T00:10:23.281Z,13.20
2023-11-10T00:12:50.578Z,14.50
2023-11-10T00:15:17.817Z,15.35
2023-11-10T00:17:44.915Z,15.23
2023-11-10T00:20:12.783Z,14.98
2023-11-10T00:22:40.717Z,15.10
2023-11-10T00:25:08.918Z,15.23
2023-11-10T00:27:36.667Z,14.95
2023-11-10T00:30:04.072Z,14.80
2023-11-10T00:32:31.269Z,15.68
2023-11-10T00:34:58.302Z,15.85
2023-11-10T00:37:25.429Z,15.10
2023-11-10T00:39:54.177Z,15.80
2023-11-10T00:42:21.230Z,16.35
2023-11-10T00:44:48.466Z,15.05
2023-11-10T00:47:15.483Z,15.20
2023-11-10T00:49:42.515Z,14.93
2023-11-10T00:52:09.566Z,14.93
2023-11-10T00:54:36.576Z,14.43
2023-11-10T00:57:04.675Z,15.13
2023-11-10T00:59:31.781Z,16.27
2023-11-10T01:01:58.833Z,14.95
2023-11-10T01:04:26.054Z,17.10
2023-11-10T01:07:11.696Z,16.67
2023-11-10T01:09:38.804Z,16.45
2023-11-10T01:12:06.794Z,16.08
2023-11-10T01:14:33.992Z,15.70
2023-11-10T01:17:01.143Z,17.20
2023-11-10T01:19:28.456Z,17.30
2023-11-10T01:21:55.607Z,16.25
2023-11-10T01:24:23.046Z,16.90
2023-11-10T01:26:51.406Z,15.82
2023-11-10T01:29:18.513Z,17.60
2023-11-10T01:31:45.603Z,16.98
2023-11-10T01:34:13.810Z,16.67
2023-11-10T01:36:40.932Z,16.13
2023-11-10T01:39:09.679Z,16.80
2023-11-10T01:41:39.613Z,16.92
2023-11-10T01:44:07.960Z,16.10
2023-11-10T01:46:47.820Z,14.88
2023-11-10T01:49:19.538Z,13.82
2023-11-10T01:51:47.874Z,13.75
2023-11-10T01:54:19.708Z,12.77
2023-11-10T01:56:48.417Z,13.32
2023-11-10T01:59:17.382Z,12.20
2023-11-10T02:01:46.724Z,13.23
2023-11-10T02:04:17.683Z,12.32
2023-11-10T02:06:47.113Z,13.15
2023-11-10T02:09:15.890Z,12.98
2023-11-10T02:11:43.101Z,13.50
2023-11-10T02:14:12.586Z,12.48
2023-11-10T02:16:40.903Z,12.85
2023-11-10T02:19:16.422Z,13.25
2023-11-10T02:21:45.093Z,14.18
2023-11-10T02:24:15.148Z,13.15
2023-11-10T02:26:42.256Z,14.10
2023-11-10T02:29:10.220Z,13.98
2023-11-10T02:31:37.453Z,13.77
2023-11-10T02:34:05.170Z,13.15
2023-11-10T02:36:33.185Z,13.43
2023-11-10T02:39:00.410Z,14.85
2023-11-10T02:41:27.547Z,14.15
2023-11-10T02:43:54.652Z,14.10
2023-11-10T02:46:21.757Z,15.20
2023-11-10T02:48:48.897Z,14.52
2023-11-10T02:51:16.052Z,13.73
2023-11-10T02:53:43.324Z,14.48
2023-11-10T02:56:10.521Z,13.70
2023-11-10T02:58:37.579Z,13.68
2023-11-10T03:01:05.286Z,13.73
2023-11-10T03:03:32.593Z,13.57
2023-11-10T03:06:00.013Z,14.38
2023-11-10T03:08:27.086Z,15.00
2023-11-10T03:10:54.269Z,14.65
2023-11-10T03:13:21.417Z,14.10
2023-11-10T03:15:48.515Z,14.77
2023-11-10T03:18:16.209Z,14.18
2023-11-10T03:20:43.922Z,14.38
2023-11-10T03:23:11.012Z,14.68
2023-11-10T03:25:38.147Z,14.40
2023-11-10T03:28:05.444Z,14.60
2023-11-10T03:30:32.547Z,14.55
2023-11-10T03:33:00.017Z,12.77
2023-11-10T03:35:27.138Z,15.98
2023-11-10T03:37:54.180Z,15.20
2023-11-10T03:40:21.640Z,15.98
2023-11-10T03:42:48.873Z,14.48
2023-11-10T03:45:16.373Z,15.32
2023-11-10T03:47:43.434Z,14.85
2023-11-10T03:50:10.890Z,17.05
2023-11-10T03:52:38.057Z,15.73
2023-11-10T03:55:05.746Z,16.25
2023-11-10T03:57:33.195Z,14.45
2023-11-10T04:00:00.446Z,15.75
2023-11-10T04:02:27.682Z,14.95
2023-11-10T04:04:54.736Z,15.32
2023-11-10T04:07:21.836Z,15.07
2023-11-10T04:09:49.004Z,14.75
2023-11-10T04:12:16.309Z,16.05
2023-11-10T04:14:43.428Z,14.75
2023-11-10T04:17:10.846Z,14.05
2023-11-10T04:19:37.928Z,14.30
2023-11-10T04:22:05.167Z,16.08
2023-11-10T04:24:34.606Z,15.45
2023-11-10T04:27:02.196Z,15.05
2023-11-10T04:29:29.253Z,15.02
2023-11-10T04:31:56.378Z,14.27
2023-11-10T04:34:23.672Z,15.05
2023-11-10T04:36:52.316Z,15.63
2023-11-10T04:39:19.432Z,14.50
2023-11-10T04:41:47.840Z,13.93
2023-11-10T04:44:14.872Z,14.63
2023-11-10T04:46:43.829Z,15.30
2023-11-10T04:49:14.616Z,13.60
2023-11-10T04:51:41.728Z,14.38
2023-11-10T04:54:12.361Z,13.88
2023-11-10T04:56:48.618Z,14.27
2023-11-10T04:59:15.991Z,13.80
2023-11-10T05:01:43.414Z,13.57
2023-11-10T05:04:13.643Z,14.15
2023-11-10T05:06:42.183Z,13.60
2023-11-10T05:09:10.041Z,13.85
2023-11-10T05:11:37.542Z,13.35
2023-11-10T05:14:05.140Z,14.85
2023-11-10T05:16:32.254Z,14.52
2023-11-10T05:19:00.054Z,14.88
2023-11-10T05:21:28.296Z,13.82
2023-11-10T05:23:56.512Z,13.73
2023-11-10T05:26:24.101Z,14.38
2023-11-10T05:28:51.128Z,14.25
2023-11-10T05:31:18.408Z,13.38
2023-11-10T05:33:45.613Z,14.13
2023-11-10T05:36:12.930Z,14.40
2023-11-10T05:38:40.176Z,14.45
2023-11-10T05:41:07.235Z,13.18
2023-11-10T05:43:34.267Z,12.85
2023-11-10T05:46:03.046Z,13.13
2023-11-10T05:48:30.834Z,13.30
2023-11-10T05:50:58.249Z,13.00
2023-11-10T05:53:25.445Z,14.00
2023-11-10T05:55:52.486Z,13.40
2023-11-10T05:58:19.572Z,13.57
2023-11-10T06:00:46.646Z,14.63
2023-11-10T06:03:13.986Z,13.55
2023-11-10T06:05:41.304Z,12.27
2023-11-10T06:08:08.404Z,12.73
2023-11-10T06:10:35.561Z,12.45
2023-11-10T06:13:02.619Z,11.73
2023-11-10T06:15:30.574Z,12.05
2023-11-10T06:17:57.660Z,12.93
2023-11-10T06:20:25.186Z,11.93
2023-11-10T06:22:53.429Z,11.95
2023-11-10T06:25:20.586Z,12.30
2023-11-10T06:27:47.740Z,13.77
2023-11-10T06:30:16.080Z,12.80
2023-11-10T06:32:43.343Z,13.88
2023-11-10T06:35:10.622Z,14.55
2023-11-10T06:37:37.852Z,14.13
2023-11-10T06:40:05.598Z,15.70
2023-11-10T06:42:35.927Z,16.25
2023-11-10T06:45:04.423Z,17.05
2023-11-10T06:47:31.837Z,18.60
2023-11-10T06:49:58.961Z,18.40
2023-11-10T06:52:26.281Z,21.23
2023-11-10T06:54:55.635Z,22.23
2023-11-10T06:57:23.021Z,21.10
2023-11-10T06:59:50.066Z,21.80
2023-11-10T07:02:17.381Z,20.90
2023-11-10T07:04:44.727Z,22.02
2023-11-10T07:07:12.853Z,22.58
2023-11-10T07:09:39.955Z,21.02
2023-11-10T07:12:07.937Z,23.65
2023-11-10T07:14:35.086Z,24.30
2023-11-10T07:17:02.767Z,23.27
2023-11-10T07:19:29.809Z,22.42
2023-11-10T07:21:56.941Z,26.88
2023-11-10T07:24:23.998Z,35.55
2023-11-10T07:26:51.222Z,35.67
2023-11-10T07:29:18.643Z,26.50
2023-11-10T07:31:45.911Z,24.48
2023-11-10T07:34:12.956Z,23.35
2023-11-10T07:36:40.112Z,21.63
2023-11-10T07:39:07.866Z,22.58
2023-11-10T07:41:36.051Z,20.65
2023-11-10T07:44:03.107Z,22.55
2023-11-10T07:46:31.272Z,20.80
2023-11-10T07:48:58.521Z,23.08
2023-11-10T07:51:27.390Z,21.48
2023-11-10T07:53:54.538Z,22.13
2023-11-10T07:56:21.682Z,20.63
2023-11-10T07:58:48.739Z,20.67
2023-11-10T08:01:15.941Z,20.63
2023-11-10T08:03:44.194Z,18.05
2023-11-10T08:06:12.082Z,19.08
2023-11-10T08:08:42.743Z,19.15
2023-11-10T08:11:13.121Z,19.25
2023-11-10T08:13:40.474Z,18.63
2023-11-10T08:16:08.185Z,18.33
2023-11-10T08:18:35.553Z,18.23
2023-11-10T08:21:02.826Z,19.67
2023-11-10T08:23:30.021Z,18.25
2023-11-10T08:25:57.183Z,18.15
2023-11-10T08:28:24.427Z,15.95
2023-11-10T08:30:51.939Z,14.88
2023-11-10T08:33:19.204Z,16.00
2023-11-10T08:35:46.531Z,13.80
2023-11-10T08:38:14.154Z,14.77
2023-11-10T08:40:41.499Z,14.48
2023-11-10T08:43:08.527Z,13.75
2023-11-10T08:45:35.657Z,14.07
2023-11-10T08:48:03.920Z,12.57
2023-11-10T08:50:32.087Z,13.43
2023-11-10T08:52:59.995Z,12.57
2023-11-10T08:55:27.590Z,11.63
2023-11-10T08:57:54.775Z,12.63
2023-11-10T09:00:21.920Z,10.82
2023-11-10T09:02:50.852Z,11.00
2023-11-10T09:05:20.654Z,12.30
2023-11-10T09:07:47.764Z,11.43
2023-11-10T09:10:15.615Z,10.50
2023-11-10T09:12:49.981Z,10.73
2023-11-10T09:15:17.198Z,8.20
2023-11-10T09:17:45.935Z,7.10
2023-11-10T09:20:14.748Z,7.47
2023-11-10T09:22:41.948Z,6.13
2023-11-10T09:25:10.978Z,5.57
2023-11-10T09:27:38.166Z,5.47
2023-11-10T09:30:06.366Z,6.22
2023-11-10T09:32:33.500Z,4.90
2023-11-10T09:35:00.747Z,4.25
2023-11-10T09:37:28.536Z,4.20
2023-11-10T09:39:58.694Z,3.78
2023-11-10T09:42:27.677Z,3.75
2023-11-10T09:44:57.131Z,4.22
2023-11-10T09:47:29.643Z,3.65
2023-11-10T09:49:58.909Z,3.75
2023-11-10T09:52:26.866Z,3.58
2023-11-10T09:54:55.360Z,3.92
2023-11-10T09:57:26.233Z,3.50
2023-11-10T09:59:55.195Z,3.50
2023-11-10T10:02:23.040Z,3.20
2023-11-10T10:04:50.250Z,3.75
2023-11-10T10:07:18.434Z,3.47
2023-11-10T10:09:46.693Z,4.53
2023-11-10T10:12:14.692Z,4.03
2023-11-10T10:14:53.147Z,5.32
2023-11-10T10:17:20.405Z,4.45
2023-11-10T10:19:49.338Z,4.95
2023-11-10T10:22:25.579Z,4.22
2023-11-10T10:24:52.704Z,5.03
2023-11-10T10:27:22.094Z,4.82
2023-11-10T10:29:49.782Z,4.38
2023-11-10T10:32:16.868Z,4.13
2023-11-10T10:34:43.986Z,4.00
2023-11-10T10:37:11.459Z,4.07
2023-11-10T10:39:44.229Z,3.60
2023-11-10T10:42:17.187Z,3.33
2023-11-10T10:44:46.369Z,3.38
2023-11-10T10:47:14.195Z,3.33
2023-11-10T10:49:43.960Z,3.15
2023-11-10T10:52:11.134Z,3.35
2023-11-10T10:54:39.435Z,3.60
2023-11-10T10:57:06.927Z,4.25
2023-11-10T10:59:37.463Z,3.97
2023-11-10T11:02:09.446Z,3.53
2023-11-10T11:05:15.603Z,3.83
2023-11-10T11:08:16.134Z,3.63
2023-11-10T11:11:20.016Z,3.20
2023-11-10T11:14:14.588Z,2.80
2023-11-10T11:17:02.679Z,2.88
2023-11-10T11:19:34.545Z,2.67
2023-11-10T11:22:02.422Z,2.95
2023-11-10T11:24:33.271Z,3.42
2023-11-10T11:27:02.721Z,2.95
2023-11-10T11:29:42.570Z,2.55
2023-11-10T11:32:20.877Z,3.05
2023-11-10T11:34:57.403Z,3.17
2023-11-10T11:37:32.423Z,2.70
2023-11-10T11:40:01.527Z,3.33
2023-11-10T11:42:41.918Z,3.17
2023-11-10T11:45:15.787Z,2.47
2023-11-10T11:47:44.509Z,3.15
2023-11-10T11:50:12.502Z,3.13
2023-11-10T11:52:39.859Z,2.53
2023-11-10T11:55:07.933Z,2.80
2023-11-10T11:57:36.534Z,2.72
2023-11-10T12:00:10.004Z,2.88
2023-11-10T12:02:42.958Z,2.70
2023-11-10T12:05:14.562Z,3.60
2023-11-10T12:07:43.717Z,3.03
2023-11-10T12:10:11.223Z,3.00
2023-11-10T12:12:38.779Z,3.20
2023-11-10T12:15:06.422Z,2.85
2023-11-10T12:17:34.645Z,3.00
2023-11-10T12:20:02.013Z,2.80
2023-11-10T12:22:29.083Z,3.13
2023-11-10T12:25:00.392Z,2.80
2023-11-10T12:27:27.513Z,3.10
2023-11-10T12:29:54.723Z,2.90
2023-11-10T12:32:22.198Z,3.70
2023-11-10T12:34:52.105Z,2.85
2023-11-10T12:37:19.525Z,2.92
2023-11-10T12:39:46.702Z,3.13
2023-11-10T12:42:13.786Z,3.00
2023-11-10T12:44:40.917Z,3.13
2023-11-10T12:47:09.117Z,2.85
2023-11-10T12:49:36.744Z,2.92
2023-11-10T12:52:10.700Z,3.03
2023-11-10T12:54:46.237Z,3.10
2023-11-10T12:57:16.442Z,3.42
2023-11-10T12:59:43.788Z,2.72
2023-11-10T13:02:10.869Z,3.00
2023-11-10T13:04:37.997Z,3.10
2023-11-10T13:07:05.295Z,3.22
2023-11-10T13:09:33.896Z,2.83
2023-11-10T13:12:00.985Z,2.88
2023-11-10T13:14:28.029Z,2.72
2023-11-10T13:16:55.278Z,2.88
2023-11-10T13:19:22.395Z,2.72
2023-11-10T13:21:49.477Z,3.25
2023-11-10T13:24:16.778Z,3.03
2023-11-10T13:26:45.122Z,2.97
2023-11-10T13:29:12.345Z,3.45
2023-11-10T13:31:39.523Z,2.97
2023-11-10T13:34:10.858Z,2.85
2023-11-10T13:36:39.318Z,2.45
2023-11-10T13:39:07.448Z,2.90
2023-11-10T13:41:43.386Z,2.40
2023-11-10T13:44:14.158Z,3.00
2023-11-10T13:46:41.301Z,3.20
2023-11-10T13:49:09.623Z,4.03
2023-11-10T13:51:38.030Z,3.28
2023-11-10T13:54:06.951Z,3.40
2023-11-10T13:56:37.270Z,3.38
2023-11-10T13:59:06.459Z,3.28
2023-11-10T14:01:33.843Z,3.28
2023-11-10T14:04:01.146Z,3.97
2023-11-10T14:06:30.798Z,3.75
2023-11-10T14:08:58.266Z,4.07
2023-11-10T14:11:27.032Z,2.95
2023-11-10T14:13:54.208Z,2.85
2023-11-10T14:16:21.698Z,2.65
2023-11-10T14:18:49.850Z,3.05
2023-11-10T14:21:17.190Z,2.67
2023-11-10T14:23:44.301Z,2.58
2023-11-10T14:26:11.598Z,2.75
2023-11-10T14:28:39.387Z,2.90
2023-11-10T14:31:06.738Z,2.85
2023-11-10T14:33:35.987Z,2.65
2023-11-10T14:36:03.747Z,3.17
2023-11-10T14:38:41.548Z,3.45
2023-11-10T14:41:14.658Z,3.58
2023-11-10T14:43:42.198Z,3.80
2023-11-10T14:46:10.011Z,3.38
2023-11-10T14:48:46.772Z,3.00
2023-11-10T14:51:23.947Z,2.72
2023-11-10T14:53:51.706Z,2.90
2023-11-10T14:56:19.235Z,3.38
2023-11-10T14:58:48.235Z,3.35
2023-11-10T15:01:16.272Z,3.53
2023-11-10T15:03:49.990Z,3.80
2023-11-10T15:06:20.262Z,3.72
2023-11-10T15:08:47.763Z,4.68
2023-11-10T15:11:14.948Z,4.13
2023-11-10T15:13:42.107Z,8.18
2023-11-10T15:16:11.140Z,9.57
2023-11-10T15:18:39.338Z,11.43
2023-11-10T15:21:06.673Z,10.73
2023-11-10T15:23:33.816Z,10.18
2023-11-10T15:26:01.272Z,12.07
2023-11-10T15:28:29.481Z,12.15
2023-11-10T15:30:56.752Z,12.15
2023-11-10T15:33:23.870Z,12.18
2023-11-10T15:35:53.713Z,12.32
2023-11-10T15:38:21.176Z,11.75
2023-11-10T15:40:50.740Z,11.40
2023-11-10T15:43:19.403Z,10.95
2023-11-10T15:45:49.234Z,10.23
2023-11-10T15:48:16.561Z,10.57
2023-11-10T15:50:43.869Z,10.50
2023-11-10T15:53:11.392Z,10.48
2023-11-10T15:55:38.481Z,10.98
2023-11-10T15:58:06.980Z,10.10
2023-11-10T16:00:34.559Z,10.50
2023-11-10T16:03:02.418Z,11.18
2023-11-10T16:05:30.054Z,12.20
2023-11-10T16:07:57.788Z,11.07
2023-11-10T16:10:25.344Z,11.90
2023-11-10T16:12:53.499Z,11.35
2023-11-10T16:15:20.791Z,11.05
2023-11-10T16:17:48.540Z,10.80
2023-11-10T16:20:16.217Z,12.05
2023-11-10T16:22:44.356Z,10.60
2023-11-10T16:25:12.079Z,11.52
2023-11-10T16:27:41.136Z,11.10
2023-11-10T16:30:09.630Z,10.65
2023-11-10T16:32:38.465Z,9.85
2023-11-10T16:35:07.648Z,10.80
2023-11-10T16:37:36.941Z,9.55
2023-11-10T16:40:05.314Z,10.25
2023-11-10T16:42:33.277Z,9.95
2023-11-10T16:45:00.945Z,9.18
2023-11-10T16:47:31.508Z,10.63
2023-11-10T16:49:58.790Z,10.38
2023-11-10T16:52:25.856Z,9.73
2023-11-10T16:54:52.943Z,10.68
2023-11-10T16:57:20.201Z,10.15
2023-11-10T16:59:47.554Z,10.98
2023-11-10T17:02:15.640Z,11.20
2023-11-10T17:04:43.533Z,10.85
2023-11-10T17:07:11.088Z,11.38
2023-11-10T17:09:38.384Z,11.82
2023-11-10T17:12:06.138Z,12.35
2023-11-10T17:14:33.335Z,11.02
2023-11-10T17:17:02.721Z,12.10
2023-11-10T17:19:30.816Z,12.00
2023-11-10T17:21:58.586Z,12.77
2023-11-10T17:24:25.742Z,12.10
2023-11-10T17:26:55.358Z,13.13
2023-11-10T17:29:22.543Z,14.02
2023-11-10T17:31:51.038Z,12.38
2023-11-10T17:34:18.486Z,14.50
2023-11-10T17:36:45.708Z,14.57
2023-11-10T17:39:15.388Z,14.18
2023-11-10T17:41:42.996Z,15.07
2023-11-10T17:44:10.674Z,14.32
2023-11-10T17:46:37.950Z,16.00
2023-11-10T17:49:05.225Z,15.75
2023-11-10T17:51:32.553Z,15.30
2023-11-10T17:53:59.595Z,17.23
2023-11-10T17:56:26.667Z,15.77
2023-11-10T17:58:53.926Z,17.13
2023-11-10T18:01:21.642Z,16.70
2023-11-10T18:03:48.968Z,17.00
2023-11-10T18:06:16.834Z,17.33
2023-11-10T18:08:44.117Z,17.15
2023-11-10T18:11:11.322Z,17.55
2023-11-10T18:13:39.191Z,17.58
2023-11-10T18:16:07.196Z,18.45
2023-11-10T18:18:34.594Z,17.50
2023-11-10T18:21:02.562Z,18.38
2023-11-10T18:23:33.708Z,17.27
2023-11-10T18:26:01.792Z,17.52
2023-11-10T18:28:29.964Z,18.38
2023-11-10T18:30:58.493Z,18.25
2023-11-10T18:33:26.749Z,17.75
2023-11-10T18:35:55.370Z,18.80
2023-11-10T18:38:24.277Z,20.48
2023-11-10T18:40:53.141Z,17.95
2023-11-10T18:43:22.165Z,18.65
2023-11-10T18:45:51.141Z,19.15
2023-11-10T18:48:21.381Z,19.23
2023-11-10T18:50:52.851Z,17.48
2023-11-10T18:53:23.202Z,18.90
2023-11-10T18:55:53.497Z,18.60
2023-11-10T18:58:25.330Z,19.05
2023-11-10T19:00:55.597Z,18.38
2023-11-10T19:03:24.481Z,18.88
2023-11-10T19:05:53.446Z,18.25
2023-11-10T19:08:23.788Z,18.33
2023-11-10T19:10:53.127Z,18.23
2023-11-10T19:13:22.138Z,17.67
2023-11-10T19:15:51.629Z,17.13
2023-11-10T19:18:20.607Z,17.83
2023-11-10T19:20:49.779Z,17.45
2023-11-10T19:23:18.894Z,17.60
2023-11-10T19:25:47.888Z,17.17
2023-11-10T19:28:19.353Z,17.17
2023-11-10T19:30:48.161Z,17.80
2023-11-10T19:33:18.657Z,18.42
2023-11-10T19:35:47.479Z,18.25
2023-11-10T19:38:16.406Z,18.48
2023-11-10T19:40:46.802Z,17.55
2023-11-10T19:43:15.711Z,17.23
2023-11-10T19:45:45.230Z,17.58
2023-11-10T19:48:14.128Z,17.92
2023-11-10T19:50:43.107Z,17.27
2023-11-10T19:53:13.409Z,18.17
2023-11-10T19:55:42.242Z,18.02
2023-11-10T20:03:16.100Z,17.17
2023-11-10T20:05:45.468Z,17.52
2023-11-10T20:08:14.419Z,18.08
2023-11-10T20:10:43.373Z,16.95
2023-11-10T20:13:12.275Z,16.00
2023-11-10T20:15:41.484Z,15.35
2023-11-10T20:18:11.996Z,17.30
2023-11-10T20:20:41.612Z,16.83
2023-11-10T20:23:10.793Z,16.80
2023-11-10T20:25:40.171Z,16.60
2023-11-10T20:28:09.885Z,17.20
2023-11-10T20:30:40.264Z,15.35
2023-11-10T20:33:09.839Z,15.57
2023-11-10T20:35:38.736Z,15.43
2023-11-10T20:38:07.775Z,16.52
2023-11-10T20:40:37.798Z,16.27
2023-11-10T20:43:06.628Z,16.20
2023-11-10T20:45:37.709Z,15.18
2023-11-10T20:48:07.491Z,16.08
2023-11-10T20:50:36.678Z,16.20
2023-11-10T20:53:05.713Z,16.15
2023-11-10T20:55:37.469Z,15.43
2023-11-10T20:58:07.734Z,14.85
2023-11-10T21:00:39.711Z,14.85
2023-11-10T21:03:12.013Z,14.00
2023-11-10T21:05:45.162Z,14.43
2023-11-10T21:08:14.185Z,13.48
2023-11-10T21:10:41.458Z,13.82
2023-11-10T21:13:08.637Z,14.20
2023-11-10T21:15:36.131Z,14.57
2023-11-10T21:18:03.626Z,12.32
2023-11-10T21:20:30.830Z,13.73
2023-11-10T21:22:57.894Z,12.32
2023-11-10T21:25:25.698Z,11.77
2023-11-10T21:27:57.366Z,13.25
2023-11-10T21:30:25.445Z,13.05
2023-11-10T21:32:53.906Z,12.68
2023-11-10T21:35:26.914Z,12.85
2023-11-10T21:37:56.405Z,12.18
2023-11-10T21:40:24.127Z,13.00
2023-11-10T21:42:51.385Z,12.45
2023-11-10T21:45:19.036Z,12.93
2023-11-10T21:47:46.262Z,12.30
2023-11-10T21:50:13.546Z,12.90
2023-11-10T21:52:41.637Z,12.32
2023-11-10T21:55:09.210Z,13.20
2023-11-10T21:57:36.372Z,13.65
2023-11-10T22:00:03.968Z,12.73
2023-11-10T22:02:31.168Z,13.25
2023-11-10T22:04:59.732Z,12.77
2023-11-10T22:07:27.115Z,13.02
2023-11-10T22:09:54.225Z,12.63
2023-11-10T22:12:21.463Z,13.50
2023-11-10T22:14:49.569Z,13.25
2023-11-10T22:17:17.074Z,14.05
2023-11-10T22:19:44.242Z,14.02
2023-11-10T22:22:11.406Z,15.10
2023-11-10T22:24:38.674Z,15.70
2023-11-10T22:27:05.863Z,14.27
2023-11-10T22:29:32.939Z,15.20
2023-11-10T22:32:00.380Z,13.90
2023-11-10T22:34:27.853Z,14.13
2023-11-10T22:36:54.935Z,12.88
2023-11-10T22:39:22.014Z,12.55
2023-11-10T22:41:49.291Z,12.25
2023-11-10T22:44:17.674Z,12.52
2023-11-10T22:46:44.776Z,12.48
2023-11-10T22:49:12.279Z,11.93
2023-11-10T22:51:39.358Z,11.82
2023-11-10T22:54:06.967Z,12.25
2023-11-10T22:56:34.295Z,12.73
2023-11-10T22:59:01.530Z,12.80
2023-11-10T23:01:29.233Z,12.70
2023-11-10T23:03:56.465Z,12.32
2023-11-10T23:06:23.771Z,12.18
2023-11-10T23:08:51.501Z,12.73
2023-11-10T23:11:19.889Z,12.57
2023-11-10T23:13:50.193Z,12.05
2023-11-10T23:16:17.326Z,12.25
2023-11-10T23:18:46.029Z,12.52
2023-11-10T23:21:14.030Z,14.05
2023-11-10T23:23:41.193Z,14.50
2023-11-10T23:26:08.364Z,14.63
2023-11-10T23:28:35.427Z,13.60
2023-11-10T23:31:02.874Z,14.15
2023-11-10T23:33:29.987Z,14.60
2023-11-10T23:36:01.862Z,16.05
2023-11-10T23:38:29.769Z,15.45
2023-11-10T23:41:00.872Z,15.15
2023-11-10T23:43:27.978Z,16.30
2023-11-10T23:45:55.242Z,16.13
2023-11-10T23:48:22.727Z,16.55
2023-11-10T23:50:50.073Z,14.55
2023-11-10T23:53:17.814Z,15.55
2023-11-10T23:55:45.397Z,15.75
2023-11-10T23:58:12.714Z,15.20
